Time;durP1;ratioP1;P1;durP2;ratioP2;P2;SDS_P1;SDS_P2;PMS_P1;PMS_P2;Temp;Humidity;BMP_temperature;BMP_pressure;BME280_temperature;BME280_humidity;BME280_pressure;Samples;Min_cycle;Max_cycle;Signal;HPM_P1;HPM_P2
2023/09/14 00:00:30;;;;;;;5.20;3.45;;;;;;;12.37;100.00;102062.69;5023222;28;20507;-67
2023/09/14 00:02:55;;;;;;;4.75;3.85;;;;;;;12.38;100.00;102059.09;5023900;28;20037;-67
2023/09/14 00:05:20;;;;;;;5.15;3.88;;;;;;;12.40;100.00;102062.56;5023415;28;20033;-67
2023/09/14 00:07:46;;;;;;;5.97;4.22;;;;;;;12.38;100.00;102063.56;5023099;28;20037;-67
2023/09/14 00:10:11;;;;;;;6.93;3.92;;;;;;;12.31;100.00;102060.25;5024295;28;20048;-67
2023/09/14 00:12:36;;;;;;;5.18;3.63;;;;;;;12.28;100.00;102063.03;5022227;28;20051;-67
2023/09/14 00:15:02;;;;;;;5.97;3.75;;;;;;;12.23;100.00;102057.00;5023255;28;20516;-67
2023/09/14 00:17:28;;;;;;;5.30;4.13;;;;;;;12.17;100.00;102063.44;5024035;28;20121;-67
2023/09/14 00:19:53;;;;;;;5.90;4.13;;;;;;;12.19;100.00;102064.25;5023044;28;20028;-68
2023/09/14 00:22:18;;;;;;;6.05;3.88;;;;;;;12.15;100.00;102069.75;5023584;28;20029;-67
2023/09/14 00:24:44;;;;;;;6.90;4.40;;;;;;;12.13;100.00;102063.63;5021284;28;20500;-68
2023/09/14 00:27:09;;;;;;;6.45;4.78;;;;;;;12.13;100.00;102069.84;5020052;28;20196;-68
2023/09/14 00:29:35;;;;;;;5.40;4.28;;;;;;;12.03;100.00;102067.56;5021610;28;20326;-68
2023/09/14 00:32:01;;;;;;;7.60;4.53;;;;;;;11.88;100.00;102072.53;5020641;28;20282;-68
2023/09/14 00:34:26;;;;;;;6.55;4.50;;;;;;;11.87;100.00;102073.47;5020886;28;20029;-68
2023/09/14 00:36:52;;;;;;;6.85;4.53;;;;;;;11.87;100.00;102068.16;5020325;28;20025;-68
2023/09/14 00:39:17;;;;;;;6.80;4.53;;;;;;;11.87;100.00;102070.81;5022174;28;20056;-68
2023/09/14 00:41:42;;;;;;;5.85;4.57;;;;;;;11.78;100.00;102064.88;5019334;28;20124;-68
2023/09/14 00:44:08;;;;;;;6.65;4.95;;;;;;;11.83;100.00;102073.63;5021684;28;20228;-68
2023/09/14 00:46:34;;;;;;;6.88;4.53;;;;;;;11.81;100.00;102070.13;5021741;28;20322;-68
2023/09/14 00:49:01;;;;;;;5.60;4.78;;;;;;;11.80;100.00;102065.72;5021979;28;20029;-68
2023/09/14 00:51:29;;;;;;;8.00;4.63;;;;;;;11.76;100.00;102069.41;5022541;28;20045;-68
2023/09/14 00:53:58;;;;;;;6.18;4.40;;;;;;;11.71;100.00;102064.25;5022048;28;20041;-68
2023/09/14 00:56:26;;;;;;;5.25;4.43;;;;;;;11.73;100.00;102068.59;5020886;28;20111;-66
2023/09/14 00:58:53;;;;;;;6.05;4.30;;;;;;;11.70;100.00;102075.81;5013868;28;20047;-67
2023/09/14 01:01:18;;;;;;;5.10;4.60;;;;;;;11.71;100.00;102066.94;5023817;28;20512;-67
2023/09/14 01:03:44;;;;;;;6.60;4.13;;;;;;;11.69;100.00;102063.44;5021793;28;20065;-67
2023/09/14 01:06:11;;;;;;;6.15;4.15;;;;;;;11.67;100.00;102068.84;5022005;28;20925;-67
2023/09/14 01:08:37;;;;;;;5.50;4.00;;;;;;;11.64;100.00;102062.72;5022221;28;20037;-67
2023/09/14 01:11:02;;;;;;;6.45;4.03;;;;;;;11.65;100.00;102062.66;5022018;28;20029;-67
2023/09/14 01:13:48;;;;;;;5.55;4.18;;;;;;;11.63;100.00;102071.66;5021687;28;20035;-67
2023/09/14 01:16:42;;;;;;;6.60;4.15;;;;;;;11.59;100.00;102067.38;5015294;28;20025;-68
2023/09/14 01:19:15;;;;;;;5.18;4.38;;;;;;;11.52;100.00;102065.84;5022532;28;20394;-67
2023/09/14 01:22:04;;;;;;;6.63;4.40;;;;;;;11.51;100.00;102072.09;5023314;28;20120;-67
2023/09/14 01:24:56;;;;;;;6.72;4.38;;;;;;;11.48;100.00;102075.72;5022655;28;20045;-67
2023/09/14 01:27:22;;;;;;;6.63;4.50;;;;;;;11.45;100.00;102066.06;5020703;28;20082;-67
2023/09/14 01:29:47;;;;;;;5.80;3.85;;;;;;;11.37;100.00;102070.78;5023148;28;20034;-67
2023/09/14 01:32:13;;;;;;;5.20;3.78;;;;;;;11.33;100.00;102066.47;5022500;28;20032;-67
2023/09/14 01:34:38;;;;;;;6.30;3.65;;;;;;;11.31;100.00;102070.97;5017844;28;20510;-67
2023/09/14 01:37:04;;;;;;;6.00;3.70;;;;;;;11.28;100.00;102068.41;5021522;28;20475;-67
2023/09/14 01:39:31;;;;;;;6.60;3.92;;;;;;;11.22;100.00;102072.16;5022361;28;20483;-66
2023/09/14 01:41:57;;;;;;;5.82;4.00;;;;;;;11.24;100.00;102080.09;5020450;28;20037;-68
2023/09/14 01:44:27;;;;;;;7.30;4.10;;;;;;;11.18;100.00;102072.31;5020555;28;20025;-69
2023/09/14 01:46:53;;;;;;;5.90;4.28;;;;;;;11.16;100.00;102075.06;5021388;28;20570;-67
2023/09/14 01:49:19;;;;;;;7.50;4.35;;;;;;;11.17;100.00;102067.94;5019589;28;20369;-71
2023/09/14 01:51:44;;;;;;;7.20;4.43;;;;;;;11.15;100.00;102067.97;5019475;28;20410;-67
2023/09/14 01:54:10;;;;;;;6.28;4.53;;;;;;;11.14;100.00;102068.03;5020385;28;20044;-67
2023/09/14 01:56:36;;;;;;;6.45;4.72;;;;;;;11.14;100.00;102063.56;5020561;28;20029;-67
2023/09/14 01:59:01;;;;;;;5.72;4.75;;;;;;;11.12;100.00;102068.09;5021215;28;20519;-68
2023/09/14 02:01:27;;;;;;;8.90;5.75;;;;;;;11.11;100.00;102063.66;5003500;28;20022;-67
2023/09/14 02:03:53;;;;;;;9.13;4.85;;;;;;;11.08;100.00;102069.13;5022080;28;20450;-67
2023/09/14 02:06:18;;;;;;;7.78;4.60;;;;;;;11.06;100.00;102067.41;5020959;28;20037;-67
2023/09/14 02:08:43;;;;;;;5.30;4.38;;;;;;;11.03;100.00;102064.84;5021754;28;20026;-67
2023/09/14 02:11:09;;;;;;;6.93;4.53;;;;;;;11.01;100.00;102077.34;5019960;28;20037;-67
2023/09/14 02:13:37;;;;;;;5.35;4.25;;;;;;;10.93;100.00;102064.28;5020798;28;20108;-68
2023/09/14 02:16:03;;;;;;;5.55;4.55;;;;;;;10.94;100.00;102068.69;5022369;28;20044;-67
2023/09/14 02:18:29;;;;;;;7.05;4.63;;;;;;;10.90;100.00;102065.25;5022306;28;20507;-68
2023/09/14 02:20:54;;;;;;;6.53;4.13;;;;;;;10.87;100.00;102070.69;5022628;28;20424;-67
2023/09/14 02:23:19;;;;;;;5.63;4.50;;;;;;;10.85;100.00;102069.84;5025779;28;20042;-68
2023/09/14 02:25:45;;;;;;;6.10;4.03;;;;;;;10.86;100.00;102063.59;5025505;28;20207;-69
2023/09/14 02:28:10;;;;;;;6.38;4.50;;;;;;;10.89;100.00;102066.16;5026049;28;20055;-69
2023/09/14 02:30:39;;;;;;;7.70;5.15;;;;;;;10.86;100.00;102068.91;5023513;28;20159;-69
2023/09/14 02:33:07;;;;;;;7.85;4.85;;;;;;;10.88;100.00;102053.78;5024459;28;20030;-67
2023/09/14 02:35:33;;;;;;;6.25;4.40;;;;;;;10.88;100.00;102067.09;5015429;28;20033;-69
2023/09/14 02:37:58;;;;;;;6.05;4.53;;;;;;;10.82;100.00;102050.44;5024370;28;20032;-67
2023/09/14 02:40:23;;;;;;;7.57;4.38;;;;;;;10.83;100.00;102058.41;5024075;28;20561;-67
2023/09/14 02:42:49;;;;;;;7.38;4.47;;;;;;;10.80;100.00;102066.47;5024107;28;20030;-67
2023/09/14 02:45:14;;;;;;;5.18;4.43;;;;;;;10.79;100.00;102066.53;5025079;28;20021;-67
2023/09/14 02:47:40;;;;;;;6.22;4.10;;;;;;;10.72;100.00;102060.53;5024120;28;20328;-67
2023/09/14 02:50:05;;;;;;;7.05;4.78;;;;;;;10.75;100.00;102049.78;5022656;28;20103;-67
2023/09/14 02:52:30;;;;;;;6.35;4.40;;;;;;;10.71;100.00;102053.47;5006547;28;20108;-67
2023/09/14 02:54:56;;;;;;;7.18;4.43;;;;;;;10.68;100.00;102051.75;5023983;28;20303;-67
2023/09/14 02:57:24;;;;;;;6.97;4.40;;;;;;;10.66;100.00;102058.94;5024395;28;20052;-67
2023/09/14 02:59:53;;;;;;;6.55;4.57;;;;;;;10.63;100.00;102055.50;5024647;28;20033;-68
2023/09/14 03:02:18;;;;;;;4.72;4.25;;;;;;;10.64;100.00;102055.44;5024969;28;20040;-67
2023/09/14 03:04:44;;;;;;;7.07;4.38;;;;;;;10.62;100.00;102057.28;5023149;28;20044;-67
2023/09/14 03:07:09;;;;;;;8.25;5.10;;;;;;;10.59;100.00;102054.72;5023077;28;20065;-66
2023/09/14 03:09:34;;;;;;;7.65;4.43;;;;;;;10.59;100.00;102052.06;5023018;28;20419;-67
2023/09/14 03:12:00;;;;;;;5.97;4.53;;;;;;;10.52;100.00;102054.94;5024432;28;20322;-67
2023/09/14 03:14:25;;;;;;;5.25;4.75;;;;;;;10.52;100.00;102057.63;5024396;28;20108;-68
2023/09/14 03:16:51;;;;;;;6.07;4.90;;;;;;;10.36;100.00;102049.22;5023582;28;20117;-67
2023/09/14 03:19:16;;;;;;;5.32;4.05;;;;;;;10.48;100.00;102057.69;5023032;28;20025;-67
2023/09/14 03:21:41;;;;;;;5.50;4.45;;;;;;;10.46;100.00;102058.69;5023034;28;20245;-67
2023/09/14 03:24:07;;;;;;;6.30;4.53;;;;;;;10.45;100.00;102056.94;5019382;28;20065;-67
2023/09/14 03:26:32;;;;;;;5.63;4.63;;;;;;;10.42;100.00;102062.38;5022998;28;20048;-67
2023/09/14 03:28:57;;;;;;;7.07;4.80;;;;;;;10.38;100.00;102060.72;5020634;28;20029;-67
2023/09/14 03:31:23;;;;;;;5.68;4.40;;;;;;;10.40;100.00;102062.38;5019099;28;20029;-67
2023/09/14 03:33:52;;;;;;;5.35;4.63;;;;;;;10.36;100.00;102063.41;5023686;28;20507;-66
2023/09/14 03:36:18;;;;;;;6.28;4.40;;;;;;;10.34;100.00;102054.59;5005153;28;20415;-66
2023/09/14 03:38:44;;;;;;;6.18;5.07;;;;;;;10.34;100.00;102062.59;5023387;28;20025;-67
2023/09/14 03:41:10;;;;;;;6.53;4.63;;;;;;;10.33;100.00;102065.31;5023501;28;20029;-67
2023/09/14 03:43:36;;;;;;;6.78;4.68;;;;;;;10.30;100.00;102063.59;5023230;28;20542;-67
2023/09/14 03:46:02;;;;;;;6.53;4.90;;;;;;;10.31;100.00;102060.00;5023542;28;20029;-67
2023/09/14 03:48:27;;;;;;;5.80;4.82;;;;;;;10.26;100.00;102061.09;5022656;28;20277;-67
2023/09/14 03:50:58;;;;;;;6.07;4.45;;;;;;;10.25;100.00;102068.19;5021286;28;20495;-67
2023/09/14 03:53:25;;;;;;;5.93;4.55;;;;;;;10.25;100.00;102062.88;5021438;28;20068;-67
2023/09/14 03:55:51;;;;;;;4.90;4.10;;;;;;;10.18;100.00;102054.16;5001668;28;20029;-67
2023/09/14 03:58:17;;;;;;;6.38;4.47;;;;;;;10.16;100.00;102061.34;5024144;28;20494;-67
2023/09/14 04:00:43;;;;;;;8.50;5.05;;;;;;;10.18;100.00;102054.16;5020237;28;20305;-66
2023/09/14 04:03:08;;;;;;;4.95;4.35;;;;;;;10.17;100.00;102062.19;5023594;28;20034;-67
2023/09/14 04:05:33;;;;;;;6.80;4.78;;;;;;;10.16;100.00;102060.47;5023495;28;20039;-67
2023/09/14 04:07:59;;;;;;;7.07;5.20;;;;;;;10.12;100.00;102061.47;5018178;28;20025;-67
2023/09/14 04:10:24;;;;;;;5.70;5.07;;;;;;;10.11;100.00;102054.38;5021421;28;20419;-68
2023/09/14 04:12:50;;;;;;;5.45;4.95;;;;;;;10.09;100.00;102067.75;5025031;28;20033;-68
2023/09/14 04:15:15;;;;;;;6.30;4.80;;;;;;;10.06;100.00;102062.50;5024375;28;20030;-67
2023/09/14 04:17:41;;;;;;;6.00;5.20;;;;;;;10.03;100.00;102051.94;5024166;28;20483;-66
2023/09/14 04:20:09;;;;;;;5.97;4.88;;;;;;;10.06;100.00;102059.84;5023274;28;20049;-68
2023/09/14 04:22:35;;;;;;;7.78;5.30;;;;;;;10.07;100.00;102058.91;5023874;28;20025;-68
2023/09/14 04:25:00;;;;;;;6.93;5.50;;;;;;;10.07;100.00;102058.91;5000534;28;20135;-68
2023/09/14 04:27:25;;;;;;;8.07;5.30;;;;;;;10.07;100.00;102048.28;5022155;28;20442;-67
2023/09/14 04:29:51;;;;;;;7.60;5.57;;;;;;;10.03;100.00;102056.41;5024324;28;20033;-66
2023/09/14 04:32:16;;;;;;;7.28;5.07;;;;;;;10.01;100.00;102056.44;5023389;28;20079;-66
2023/09/14 04:34:42;;;;;;;7.13;5.03;;;;;;;10.00;100.00;102052.06;5021129;28;20099;-66
2023/09/14 04:37:07;;;;;;;6.45;5.00;;;;;;;9.95;100.00;102054.00;5020179;28;20036;-67
2023/09/14 04:39:34;;;;;;;8.48;5.03;;;;;;;9.95;100.00;102051.31;5016407;28;20033;-66
2023/09/14 04:42:00;;;;;;;6.97;5.32;;;;;;;9.95;100.00;102056.66;5021959;28;20087;-67
2023/09/14 04:44:25;;;;;;;6.60;4.97;;;;;;;9.92;100.00;102059.38;5021468;28;20025;-67
2023/09/14 04:46:51;;;;;;;6.15;4.38;;;;;;;9.86;100.00;102047.13;5022157;28;20037;-67
2023/09/14 04:49:16;;;;;;;6.05;5.03;;;;;;;9.91;100.00;102052.31;5019219;28;20021;-67
2023/09/14 04:51:42;;;;;;;5.93;4.97;;;;;;;9.88;100.00;102050.63;5020138;28;20395;-66
2023/09/14 04:54:07;;;;;;;6.22;4.90;;;;;;;9.85;100.00;102056.00;5021993;28;20033;-67
2023/09/14 04:56:32;;;;;;;5.85;5.25;;;;;;;9.86;100.00;102057.75;5020480;28;20033;-68
2023/09/14 04:58:58;;;;;;;5.53;4.93;;;;;;;9.86;100.00;102051.56;5021200;28;20045;-67
2023/09/14 05:01:26;;;;;;;7.32;4.80;;;;;;;9.83;100.00;102065.84;5018704;28;20041;-67
2023/09/14 05:03:52;;;;;;;5.25;4.72;;;;;;;9.82;100.00;102056.09;5021796;28;20044;-68
2023/09/14 05:06:17;;;;;;;5.15;4.63;;;;;;;9.75;100.00;102053.69;5021278;28;20025;-67
2023/09/14 05:08:42;;;;;;;4.90;4.40;;;;;;;9.74;100.00;102058.13;5021219;28;20065;-68
2023/09/14 05:11:08;;;;;;;5.57;4.75;;;;;;;9.76;100.00;102056.28;5020105;28;20571;-67
2023/09/14 05:13:33;;;;;;;5.03;4.53;;;;;;;9.75;100.00;102061.66;5022518;28;20497;-68
2023/09/14 05:15:58;;;;;;;5.80;5.20;;;;;;;9.74;100.00;102058.13;5017248;28;20206;-66
2023/09/14 05:18:24;;;;;;;8.23;5.40;;;;;;;9.73;100.00;102054.56;5022240;28;20581;-67
2023/09/14 05:20:50;;;;;;;6.63;5.80;;;;;;;9.72;100.00;102059.94;5020974;28;20037;-67
2023/09/14 05:23:15;;;;;;;7.80;5.70;;;;;;;9.76;100.00;102069.56;5021686;28;20037;-67
2023/09/14 05:25:41;;;;;;;8.13;5.82;;;;;;;9.79;100.00;102065.97;5022062;28;20117;-67
2023/09/14 05:28:08;;;;;;;7.35;5.80;;;;;;;9.79;100.00;102068.63;5022047;28;20065;-67
2023/09/14 05:30:34;;;;;;;8.88;6.25;;;;;;;9.79;100.00;102060.66;5020016;28;20029;-67
2023/09/14 05:33:00;;;;;;;7.93;6.47;;;;;;;9.83;100.00;102064.97;5016099;28;20029;-68
2023/09/14 05:35:26;;;;;;;7.53;6.30;;;;;;;9.85;100.00;102076.41;5021204;28;20545;-67
2023/09/14 05:37:51;;;;;;;7.43;6.10;;;;;;;9.84;100.00;102075.56;5014489;28;20041;-68
2023/09/14 05:40:17;;;;;;;6.28;5.55;;;;;;;9.86;100.00;102084.34;5008266;28;20076;-68
2023/09/14 05:42:42;;;;;;;8.13;5.07;;;;;;;9.89;100.00;102083.41;5021656;28;20033;-66
2023/09/14 05:45:09;;;;;;;6.72;5.32;;;;;;;9.93;100.00;102085.06;5021246;28;20154;-67
2023/09/14 05:47:35;;;;;;;5.82;5.20;;;;;;;9.95;100.00;102088.56;5021500;28;20055;-67
2023/09/14 05:50:01;;;;;;;9.52;5.78;;;;;;;9.97;100.00;102081.38;5021977;28;20559;-68
2023/09/14 05:52:26;;;;;;;7.03;5.57;;;;;;;10.06;100.00;102090.91;5020902;28;20040;-67
2023/09/14 05:54:52;;;;;;;6.90;5.82;;;;;;;10.08;100.00;102092.59;5020667;28;20502;-67
2023/09/14 05:57:17;;;;;;;7.38;5.40;;;;;;;10.13;100.00;102087.16;5016065;28;20550;-67
2023/09/14 05:59:43;;;;;;;6.07;5.38;;;;;;;10.16;100.00;102095.06;5018119;28;20428;-67
2023/09/14 06:02:08;;;;;;;8.80;5.68;;;;;;;10.23;100.00;102096.59;5019154;28;20064;-67
2023/09/14 06:04:34;;;;;;;7.75;6.10;;;;;;;10.34;100.00;102096.31;5004644;28;20021;-67
2023/09/14 06:07:00;;;;;;;8.77;6.15;;;;;;;10.40;100.00;102091.66;5021250;28;20500;-67
2023/09/14 06:09:26;;;;;;;10.13;6.80;;;;;;;10.45;100.00;102094.22;5021737;28;20022;-67
2023/09/14 06:11:53;;;;;;;10.60;7.68;;;;;;;10.53;100.00;102093.97;5019955;28;20037;-67
2023/09/14 06:14:18;;;;;;;9.40;6.93;;;;;;;10.69;100.00;102092.56;5021727;28;20064;-67
2023/09/14 06:16:44;;;;;;;9.65;7.38;;;;;;;10.91;100.00;102093.66;5019619;28;20025;-67
2023/09/14 06:19:09;;;;;;;9.85;7.60;;;;;;;11.17;100.00;102099.91;5019786;28;20045;-68
2023/09/14 06:21:35;;;;;;;11.00;7.80;;;;;;;11.40;100.00;102102.66;5018193;28;20025;-67
2023/09/14 06:24:01;;;;;;;8.85;7.38;;;;;;;11.56;100.00;102091.47;5016623;28;20072;-69
2023/09/14 06:26:28;;;;;;;10.93;7.70;;;;;;;11.84;100.00;102094.94;5020307;28;20068;-68
2023/09/14 06:28:53;;;;;;;10.52;7.97;;;;;;;12.03;100.00;102091.56;5021344;28;20052;-68
2023/09/14 06:31:19;;;;;;;9.10;7.15;;;;;;;12.20;100.00;102095.34;5015762;28;20432;-68
2023/09/14 06:33:44;;;;;;;11.98;8.15;;;;;;;12.41;100.00;102103.47;5016244;28;20358;-67
2023/09/14 06:36:09;;;;;;;9.50;7.22;;;;;;;12.64;100.00;102092.78;5020862;28;20021;-69
2023/09/14 06:38:35;;;;;;;9.65;7.50;;;;;;;12.85;100.00;102098.19;5022063;28;20447;-68
2023/09/14 06:41:00;;;;;;;10.20;7.47;;;;;;;13.15;100.00;102088.91;5020340;28;20022;-68
2023/09/14 06:43:26;;;;;;;9.93;7.40;;;;;;;13.29;100.00;102100.84;5021411;28;20104;-67
2023/09/14 06:45:51;;;;;;;8.68;7.00;;;;;;;13.56;100.00;102097.00;5019645;28;20414;-67
2023/09/14 06:48:16;;;;;;;9.43;7.25;;;;;;;13.76;100.00;102093.47;5018577;28;20049;-68
2023/09/14 06:50:42;;;;;;;11.27;7.03;;;;;;;13.99;100.00;102088.88;5020209;28;20025;-68
2023/09/14 06:53:08;;;;;;;10.60;7.03;;;;;;;14.33;100.00;102094.41;5016529;28;20104;-68
2023/09/14 06:55:37;;;;;;;9.98;7.60;;;;;;;14.43;100.00;102097.53;5020700;28;20032;-69
2023/09/14 06:58:03;;;;;;;9.68;7.45;;;;;;;14.63;100.00;102100.19;5015293;28;20136;-68
2023/09/14 07:00:28;;;;;;;8.50;7.03;;;;;;;14.77;100.00;102096.81;5018789;28;20831;-68
2023/09/14 07:02:54;;;;;;;9.75;7.07;;;;;;;15.03;100.00;102100.03;5017463;28;20041;-69
2023/09/14 07:05:19;;;;;;;7.55;6.80;;;;;;;15.23;100.00;102096.38;5014764;28;20044;-68
2023/09/14 07:07:44;;;;;;;8.07;6.50;;;;;;;15.47;100.00;102099.59;5014456;28;20286;-68
2023/09/14 07:10:10;;;;;;;9.30;6.72;;;;;;;15.62;100.00;102104.19;5019349;28;20025;-68
2023/09/14 07:12:36;;;;;;;7.55;6.32;;;;;;;15.76;100.00;102098.13;5018432;28;20036;-68
2023/09/14 07:15:02;;;;;;;9.52;6.65;;;;;;;15.90;100.00;102104.50;5018112;28;20198;-68
2023/09/14 07:17:28;;;;;;;9.18;6.40;;;;;;;16.30;100.00;102098.78;5020485;28;20715;-68
2023/09/14 07:19:53;;;;;;;9.00;6.90;;;;;;;16.66;99.67;102101.25;5021514;28;20101;-68
2023/09/14 07:22:19;;;;;;;8.35;6.38;;;;;;;17.10;97.21;102097.88;5019153;28;20036;-69
2023/09/14 07:24:46;;;;;;;7.88;6.07;;;;;;;17.47;95.95;102098.38;5021619;28;20187;-69
2023/09/14 07:27:12;;;;;;;9.63;6.28;;;;;;;17.82;94.88;102097.13;5024295;28;20376;-69
2023/09/14 07:29:38;;;;;;;8.38;6.72;;;;;;;18.30;92.68;102104.94;5015409;28;20044;-69
2023/09/14 07:32:03;;;;;;;11.18;7.25;;;;;;;18.64;88.70;102109.91;5019265;28;20033;-69
2023/09/14 07:34:29;;;;;;;9.07;7.03;;;;;;;19.11;87.22;102107.78;5020609;28;20101;-70
2023/09/14 07:36:55;;;;;;;10.77;7.10;;;;;;;19.42;84.67;102107.44;5020898;28;20117;-69
2023/09/14 07:39:21;;;;;;;9.57;7.32;;;;;;;19.70;83.58;102108.28;5021565;28;20450;-69
2023/09/14 07:41:46;;;;;;;8.40;6.70;;;;;;;20.22;82.29;102109.13;5020860;28;20231;-68
2023/09/14 07:44:12;;;;;;;8.85;6.90;;;;;;;20.46;79.93;102111.91;5023841;28;20103;-68
2023/09/14 07:46:39;;;;;;;10.45;7.25;;;;;;;20.81;78.07;102110.22;5023792;28;20032;-69
2023/09/14 07:49:07;;;;;;;10.30;7.15;;;;;;;21.21;75.95;102115.38;5021498;28;20029;-66
2023/09/14 07:51:33;;;;;;;11.20;7.13;;;;;;;21.43;75.42;102114.63;5019440;28;20112;-69
2023/09/14 07:53:59;;;;;;;7.18;6.45;;;;;;;21.83;74.04;102117.81;5018515;28;20491;-71
2023/09/14 07:56:28;;;;;;;9.10;6.78;;;;;;;21.94;69.90;102124.22;5024958;28;20392;-68
2023/09/14 07:58:53;;;;;;;7.95;6.18;;;;;;;21.99;70.14;102130.16;5023842;28;20131;-67
2023/09/14 08:01:19;;;;;;;9.27;6.13;;;;;;;22.08;69.12;102124.88;5024832;28;20034;-69
2023/09/14 08:03:45;;;;;;;9.27;6.47;;;;;;;22.09;68.31;102123.88;5023144;28;20032;-67
2023/09/14 08:06:10;;;;;;;7.50;6.32;;;;;;;22.23;68.50;102136.38;5023740;28;20048;-67
2023/09/14 08:08:36;;;;;;;8.82;6.70;;;;;;;22.07;68.60;102114.13;5023505;28;20044;-67
2023/09/14 08:11:01;;;;;;;7.88;5.78;;;;;;;22.19;71.72;102112.34;5019832;28;20105;-68
2023/09/14 08:13:26;;;;;;;7.53;6.20;;;;;;;22.39;68.06;102117.03;5022921;28;20029;-68
2023/09/14 08:15:52;;;;;;;9.07;6.70;;;;;;;22.57;70.41;102114.66;5024852;28;20052;-68
2023/09/14 08:18:19;;;;;;;8.98;6.47;;;;;;;22.80;65.47;102124.50;5023045;28;20045;-68
2023/09/14 08:20:46;;;;;;;9.57;6.68;;;;;;;23.15;65.03;102119.84;5023417;28;20029;-68
2023/09/14 08:23:13;;;;;;;8.60;6.53;;;;;;;23.22;64.42;102118.34;5021451;28;20542;-68
2023/09/14 08:25:43;;;;;;;9.57;6.70;;;;;;;23.18;65.78;102122.31;5024532;28;20029;-68
2023/09/14 08:28:19;;;;;;;9.00;6.13;;;;;;;23.47;66.65;102128.00;5019570;28;20025;-68
2023/09/14 08:30:46;;;;;;;10.02;7.40;;;;;;;23.65;63.66;102121.00;5015027;28;20033;-69
2023/09/14 08:33:12;;;;;;;9.65;6.72;;;;;;;24.14;61.73;102124.91;5022529;28;20036;-68
2023/09/14 08:35:38;;;;;;;10.55;6.78;;;;;;;24.25;59.76;102122.09;5024234;28;20033;-68
2023/09/14 08:38:05;;;;;;;8.95;6.75;;;;;;;24.78;59.33;102138.19;5021418;28;20129;-68
2023/09/14 08:40:31;;;;;;;7.75;6.80;;;;;;;25.19;56.90;102130.84;4995031;28;20267;-69
2023/09/14 08:42:59;;;;;;;9.25;7.05;;;;;;;25.62;57.59;102137.72;5020595;28;20029;-68
2023/09/14 08:45:30;;;;;;;9.88;7.25;;;;;;;25.74;54.51;102135.69;5022897;28;20146;-68
2023/09/14 08:47:57;;;;;;;8.27;6.95;;;;;;;26.52;52.70;102134.53;5023621;28;20502;-69
2023/09/14 08:50:25;;;;;;;11.35;8.50;;;;;;;26.57;53.13;102131.34;5024015;28;20029;-68
2023/09/14 08:52:50;;;;;;;12.82;8.45;;;;;;;26.65;50.19;102134.16;5021694;28;20033;-69
2023/09/14 08:55:18;;;;;;;10.93;8.43;;;;;;;26.62;52.91;102130.88;5023409;28;20935;-68
2023/09/14 08:57:45;;;;;;;10.25;8.60;;;;;;;26.88;48.73;102141.94;5022887;28;20026;-68
2023/09/14 09:00:15;;;;;;;9.07;8.02;;;;;;;27.21;48.59;102130.38;5021309;28;20048;-69
2023/09/14 09:02:52;;;;;;;14.85;8.77;;;;;;;27.87;49.88;102131.81;5020794;28;20404;-68
2023/09/14 09:05:19;;;;;;;10.63;9.43;;;;;;;28.15;45.35;102137.97;5023063;28;20049;-69
2023/09/14 09:07:46;;;;;;;13.50;9.48;;;;;;;27.85;48.41;102136.59;5019759;28;20036;-68
2023/09/14 09:10:22;;;;;;;11.48;9.77;;;;;;;28.45;47.58;102122.94;5020077;28;20037;-68
2023/09/14 09:12:50;;;;;;;11.52;9.07;;;;;;;29.17;44.12;102131.56;5023213;28;20041;-67
2023/09/14 09:15:16;;;;;;;10.32;8.85;;;;;;;29.31;42.04;102126.47;5023114;28;20035;-68
2023/09/14 09:17:42;;;;;;;10.82;9.02;;;;;;;29.56;41.19;102124.59;5018524;28;20467;-68
2023/09/14 09:20:24;;;;;;;10.50;9.38;;;;;;;29.56;42.68;102128.22;5014151;28;20036;-68
2023/09/14 09:22:55;;;;;;;10.00;8.90;;;;;;;29.60;40.13;102121.34;5017651;28;20021;-68
2023/09/14 09:25:22;;;;;;;11.40;9.10;;;;;;;28.78;40.35;102129.38;5014222;28;20029;-67
2023/09/14 09:27:56;;;;;;;11.38;9.23;;;;;;;28.75;40.56;102117.91;5023084;28;20040;-69
2023/09/14 09:30:25;;;;;;;11.32;9.52;;;;;;;28.59;40.88;102109.63;5001185;28;20049;-67
2023/09/14 09:32:55;;;;;;;11.75;10.32;;;;;;;29.16;41.26;102126.25;5022393;28;20061;-68
2023/09/14 09:35:23;;;;;;;9.95;7.50;;;;;;;29.73;38.56;102118.94;5023660;28;20025;-69
2023/09/14 09:37:50;;;;;;;9.75;7.47;;;;;;;29.97;37.02;102114.41;5021831;28;20048;-69
2023/09/14 09:40:17;;;;;;;8.88;7.55;;;;;;;30.39;39.27;102116.03;5022367;28;20030;-70
2023/09/14 09:42:43;;;;;;;7.68;6.13;;;;;;;30.91;36.33;102116.31;5024074;28;20029;-68
2023/09/14 09:45:09;;;;;;;8.75;6.72;;;;;;;30.57;35.94;102116.66;5005137;28;20033;-69
2023/09/14 09:47:35;;;;;;;8.80;6.20;;;;;;;30.93;35.35;102118.88;5021739;28;20242;-69
2023/09/14 09:50:05;;;;;;;8.15;5.28;;;;;;;30.98;34.30;102116.47;5020632;28;20029;-69
2023/09/14 09:52:32;;;;;;;7.20;5.78;;;;;;;31.36;33.87;102113.81;5021704;28;20022;-70
2023/09/14 09:54:58;;;;;;;7.78;6.60;;;;;;;31.18;33.38;102109.41;5001197;28;20182;-68
2023/09/14 09:57:29;;;;;;;6.63;5.95;;;;;;;31.18;35.41;102111.31;5023903;28;20595;-69
2023/09/14 09:59:55;;;;;;;7.88;6.13;;;;;;;31.07;34.95;102111.75;5024153;28;20083;-69
2023/09/14 10:02:31;;;;;;;6.90;6.05;;;;;;;31.36;35.81;102113.81;5022194;28;20025;-69
2023/09/14 10:04:58;;;;;;;8.55;6.20;;;;;;;31.13;34.08;102111.88;5024017;28;20048;-71
2023/09/14 10:07:24;;;;;;;9.10;6.93;;;;;;;31.14;34.50;102113.56;5005633;28;20029;-70
2023/09/14 10:09:55;;;;;;;11.23;6.97;;;;;;;30.07;35.99;102112.34;5021440;28;20050;-68
2023/09/14 10:12:26;;;;;;;8.05;7.22;;;;;;;29.18;36.85;102115.97;5019754;28;20033;-68
2023/09/14 10:14:55;;;;;;;9.48;7.03;;;;;;;28.00;39.46;102112.22;5022729;28;20029;-68
2023/09/14 10:17:28;;;;;;;7.45;6.13;;;;;;;27.91;39.42;102105.84;4999862;28;20037;-69
2023/09/14 10:19:54;;;;;;;6.57;5.70;;;;;;;29.10;36.19;102099.53;5017879;28;20148;-69
2023/09/14 10:22:21;;;;;;;8.60;6.30;;;;;;;30.69;34.72;102106.97;5021368;28;20030;-69
2023/09/14 10:24:49;;;;;;;8.15;6.18;;;;;;;31.13;33.30;102098.13;5016526;28;20675;-69
2023/09/14 10:27:15;;;;;;;7.68;5.68;;;;;;;31.67;32.49;102109.03;5021798;28;20032;-68
2023/09/14 10:29:43;;;;;;;7.90;5.38;;;;;;;31.90;31.35;102100.78;5018575;28;20034;-68
2023/09/14 10:32:11;;;;;;;6.40;5.50;;;;;;;30.83;34.15;102105.38;5021685;28;20115;-68
2023/09/14 10:34:38;;;;;;;5.63;4.78;;;;;;;31.50;31.83;102105.59;5021715;28;20064;-68
2023/09/14 10:37:04;;;;;;;5.93;4.65;;;;;;;32.91;31.02;102095.53;5021507;28;20268;-69
2023/09/14 10:39:30;;;;;;;6.78;5.57;;;;;;;34.24;29.94;102093.91;5020572;28;20018;-69
2023/09/14 10:41:57;;;;;;;8.23;5.72;;;;;;;34.92;29.54;102092.09;5017580;28;20391;-68
2023/09/14 10:44:23;;;;;;;3.95;3.20;;;;;;;36.20;26.68;102092.75;5026680;28;20025;-69
2023/09/14 10:46:53;;;;;;;4.90;3.55;;;;;;;36.59;24.80;102083.47;5026602;28;20041;-70
2023/09/14 10:49:25;;;;;;;4.82;3.55;;;;;;;37.26;24.78;102083.06;5023993;28;20507;-68
2023/09/14 10:51:55;;;;;;;6.00;4.00;;;;;;;37.61;23.63;102086.19;5025975;28;20668;-68
2023/09/14 10:54:25;;;;;;;5.32;4.20;;;;;;;35.25;25.97;102083.03;5024191;28;20531;-68
2023/09/14 10:57:13;;;;;;;7.70;3.92;;;;;;;32.99;31.31;102078.91;4996811;28;20037;-68
2023/09/14 10:59:52;;;;;;;5.75;4.03;;;;;;;30.43;33.29;102082.56;5026074;28;20033;-68
2023/09/14 11:02:39;;;;;;;5.55;4.50;;;;;;;29.18;35.28;102074.84;5024321;28;20105;-68
2023/09/14 11:05:17;;;;;;;6.78;3.85;;;;;;;27.50;37.54;102080.91;5025408;28;20099;-68
2023/09/14 11:07:47;;;;;;;7.80;4.03;;;;;;;26.19;38.93;102069.56;5024835;28;20025;-68
2023/09/14 11:10:17;;;;;;;5.85;4.38;;;;;;;25.63;41.14;102071.31;5001157;28;20026;-68
2023/09/14 11:12:44;;;;;;;9.23;4.70;;;;;;;25.17;42.02;102070.22;5005752;28;20451;-67
2023/09/14 11:15:20;;;;;;;4.63;3.20;;;;;;;24.66;43.27;102073.13;5024227;28;20033;-67
2023/09/14 11:17:52;;;;;;;4.70;3.10;;;;;;;24.18;43.37;102073.81;5023963;28;20260;-67